Airfield :
LOGIN :

Register | Disclaimer

   EN    FR    IT 

 










Legend :    VFR   Marginal VFR   IFR   Intensive IFR   Very Intensive IFR
Visi :
Ceiling :
>= 8 km
>= 3000ft
5 to 8 km
1000 to 3000 ft
1500m to 5 km
500 to 1000 ft
800 to 1500m
200 to 500 ft
< 800m
< 200 ft
Symbols :   Thunderstorms  Fog  Heavy snow  Heavy precipitations  Wind > 20 kt
SIGMETs :     Misc.  Thunderstorms  Icing  Turbulence  Mountain Waves  Volcanic Ashes






- Airport Elevation : 124 ft
- IATA code : RNS


LFRN - Rennes

CURRENT METAR :
  • 252130Z AUTO 28003KT CAVOK 09/07 Q1018 NOSIG

EXPIRED METARs :
  • 252100Z AUTO 29004KT CAVOK 10/07 Q1018 NOSIG
  • 252030Z AUTO 26004KT CAVOK 11/08 Q1018 NOSIG
  • 252000Z AUTO 31005KT CAVOK 11/07 Q1018 NOSIG
  • 251930Z AUTO 32007KT CAVOK 11/08 Q1018 NOSIG
  • 251900Z AUTO 32006KT CAVOK 12/09 Q1018 NOSIG

TAF TAF LFRN
Valid from the 25 at 18:00 until the 26 at 18:00 UTC


251700Z 2518/2618 36008KT 9999 SCT040
BECMG 2607/2609 24012KT
TEMPO 2611/2613 24015G30KT 3000 RA BKN012
BECMG 2613/2615 32015G25KT
PROB40
TEMPO 2615/2618 4000 SHRA
ATIS : +33 2 99 67 72 50



MET'MAP, your aeronautical weather chart ! - Copyright ORBIFLY December 2007 - Disclaimer

ORBIFLY MET'MAP TEAM :

Programming & Development : Alexandra Zaïnal
Original concept : Baudouin d'Aumeries
Technical & hardware support : Manuel Goepfert
Assistance : Marc-Olivier Méhu




SOURCES & CREDITS :

   NOAA